Phoenix, Arizona
Traffic Map
Current Weather Conditions
Phoenix, Arizona
Few Clouds
Few Clouds
93°
Feels Like: 93°
Wind Chill: 93° Ceiling: Unl
Heat Index: 93° Visibility: 10mi
Dew Point: 58° Wind: 10mph
Humidity: 31% Direction: 120° (ESE)
Pressure: 29.96in Gusts: 0mph
Raw Report DataKPHX 221651Z 12009KT 10SM FEW090 FEW140 34/14 A2996 RMK AO2 SLP124 T03390144
Traffic Incident Summary
Active as of:
Severity:
Category:
InformationThere was an issue retrieving the traffic information for this location. Please try a different location or try again shortly.
Advertisements